Time;durP1;ratioP1;P1;durP2;ratioP2;P2;SDS_P1;SDS_P2;PMS_P1;PMS_P2;Temp;Humidity;BMP_temperature;BMP_pressure;BME280_temperature;BME280_humidity;BME280_pressure;Samples;Min_cycle;Max_cycle;Signal;HPM_P1;HPM_P2
2020/12/23 00:01:17;;;;;;;21.30;20.00;;;7.50;1.00;;;;;;5053817;28;20170;-78
2020/12/23 00:03:43;;;;;;;26.80;24.90;;;7.50;1.00;;;;;;5035786;28;20170;-78
2020/12/23 00:06:09;;;;;;;17.93;16.53;;;7.40;1.00;;;;;;5053717;28;20173;-78
2020/12/23 00:08:34;;;;;;;20.77;18.83;;;7.40;1.00;;;;;;5053997;28;20612;-78
2020/12/23 00:11:00;;;;;;;23.60;22.30;;;7.40;1.00;;;;;;5035872;28;20264;-78
2020/12/23 00:13:26;;;;;;;22.15;19.80;;;7.20;1.00;;;;;;5053600;28;20601;-77
2020/12/23 00:15:52;;;;;;;18.53;17.33;;;7.30;1.00;;;;;;5054251;28;20284;-78
2020/12/23 00:18:17;;;;;;;21.97;20.77;;;7.20;1.00;;;;;;5053426;28;20201;-78
2020/12/23 00:20:43;;;;;;;18.50;17.17;;;7.20;1.00;;;;;;5035957;28;20166;-78
2020/12/23 00:23:08;;;;;;;20.87;19.23;;;7.10;1.00;;;;;;5035779;28;20165;-77
2020/12/23 00:25:34;;;;;;;19.50;18.40;;;7.10;1.00;;;;;;5053709;28;20174;-78
2020/12/23 00:28:00;;;;;;;21.40;20.03;;;7.00;1.00;;;;;;5053371;28;20194;-78
2020/12/23 00:30:26;;;;;;;27.07;25.47;;;7.00;1.00;;;;;;5053347;28;20465;-78
2020/12/23 00:32:51;;;;;;;27.17;25.33;;;7.00;1.00;;;;;;5053192;28;20213;-78
2020/12/23 00:35:17;;;;;;;23.60;22.60;;;6.90;1.00;;;;;;5053277;28;20204;-78
2020/12/23 00:37:43;;;;;;;18.77;17.67;;;6.90;1.00;;;;;;5053281;28;20189;-78
2020/12/23 00:40:08;;;;;;;21.80;20.70;;;6.80;1.00;;;;;;5053778;28;20166;-78
2020/12/23 00:42:34;;;;;;;20.50;19.50;;;6.80;1.00;;;;;;5053111;28;20173;-78
2020/12/23 00:44:59;;;;;;;24.43;23.10;;;6.70;1.00;;;;;;5053549;28;20184;-78
2020/12/23 00:47:25;;;;;;;28.03;26.70;;;6.60;1.00;;;;;;5053168;28;20679;-78
2020/12/23 00:49:51;;;;;;;29.57;27.67;;;6.60;1.00;;;;;;5053418;28;20635;-78
2020/12/23 00:52:17;;;;;;;28.87;27.17;;;6.60;1.00;;;;;;5035172;28;20416;-77
2020/12/23 00:54:42;;;;;;;24.13;22.60;;;6.50;1.00;;;;;;5053130;28;20292;-78
2020/12/23 00:57:08;;;;;;;27.47;26.03;;;6.50;1.00;;;;;;5035218;28;20205;-78
2020/12/23 00:59:34;;;;;;;30.00;28.50;;;6.50;1.00;;;;;;5035211;28;20173;-78
2020/12/23 01:02:00;;;;;;;39.90;38.00;;;6.50;1.00;;;;;;5056891;28;20212;-78
2020/12/23 01:04:26;;;;;;;30.52;29.02;;;6.50;1.00;;;;;;5057090;28;20197;-78
2020/12/23 01:06:52;;;;;;;25.15;23.48;;;6.50;1.00;;;;;;5056842;28;20719;-78
2020/12/23 01:09:18;;;;;;;26.90;25.23;;;6.40;1.00;;;;;;5057508;28;20197;-78
2020/12/23 01:11:43;;;;;;;29.70;28.33;;;6.40;1.00;;;;;;5056912;28;20181;-78
2020/12/23 01:14:09;;;;;;;26.67;25.10;;;6.40;1.00;;;;;;5056750;28;20686;-78
2020/12/23 01:16:34;;;;;;;29.73;28.43;;;6.30;1.00;;;;;;5056781;28;20205;-78
2020/12/23 01:19:00;;;;;;;26.17;24.87;;;6.30;1.00;;;;;;5057452;28;20591;-78
2020/12/23 01:21:25;;;;;;;30.00;28.60;;;6.30;1.00;;;;;;5056767;28;20231;-78
2020/12/23 01:23:51;;;;;;;25.80;24.53;;;6.30;1.00;;;;;;5057126;28;20485;-78
2020/12/23 01:26:17;;;;;;;24.97;23.27;;;6.30;1.00;;;;;;5056639;28;20260;-78
2020/12/23 01:28:47;;;;;;;24.20;23.07;;;6.30;1.00;;;;;;5038807;28;20185;-78
2020/12/23 01:31:13;;;;;;;22.48;21.17;;;6.30;1.00;;;;;;5056985;28;20178;-78
2020/12/23 01:33:39;;;;;;;22.00;20.87;;;6.20;1.00;;;;;;5056534;28;20177;-78
2020/12/23 01:36:04;;;;;;;23.10;21.80;;;6.20;1.00;;;;;;5056649;28;20530;-78
2020/12/23 01:38:30;;;;;;;26.57;24.83;;;6.20;1.00;;;;;;5039112;28;20166;-78
2020/12/23 01:41:00;;;;;;;21.20;19.93;;;6.10;1.00;;;;;;5057128;28;20170;-78
2020/12/23 01:43:26;;;;;;;25.40;23.83;;;6.20;1.00;;;;;;5056262;28;20194;-78
2020/12/23 01:45:52;;;;;;;23.33;21.73;;;6.20;1.00;;;;;;5056481;28;20570;-78
2020/12/23 01:48:22;;;;;;;17.90;16.53;;;6.20;1.00;;;;;;5056257;28;20235;-78
2020/12/23 01:50:49;;;;;;;23.38;21.52;;;6.10;1.00;;;;;;5056561;28;20455;-78
2020/12/23 01:53:18;;;;;;;20.30;19.25;;;6.10;1.00;;;;;;5056017;28;20173;-77
2020/12/23 01:55:45;;;;;;;21.17;19.77;;;6.00;1.00;;;;;;5038151;28;20202;-78
2020/12/23 01:58:14;;;;;;;24.08;22.98;;;6.00;1.00;;;;;;5056316;28;20674;-78
2020/12/23 02:00:40;;;;;;;22.63;21.30;;;6.00;1.00;;;;;;5056262;28;20601;-78
2020/12/23 02:03:11;;;;;;;19.15;18.15;;;6.00;1.00;;;;;;5056225;28;20170;-78
2020/12/23 02:05:41;;;;;;;23.27;21.88;;;5.90;1.00;;;;;;5038430;28;20200;-78
2020/12/23 02:08:08;;;;;;;19.10;18.20;;;5.90;1.00;;;;;;5037897;28;20217;-78
2020/12/23 02:10:34;;;;;;;23.30;21.98;;;6.00;1.00;;;;;;5055855;28;20174;-78
2020/12/23 02:13:00;;;;;;;23.93;22.73;;;5.90;1.00;;;;;;5054841;28;20534;-78
2020/12/23 02:15:26;;;;;;;27.60;26.15;;;5.90;1.00;;;;;;5055672;28;20201;-78
2020/12/23 02:17:51;;;;;;;23.20;22.05;;;5.80;1.00;;;;;;5056097;28;20194;-78
2020/12/23 02:20:17;;;;;;;24.53;23.27;;;5.80;1.00;;;;;;5055719;28;20177;-78
2020/12/23 02:22:44;;;;;;;22.77;21.57;;;5.80;1.00;;;;;;5055917;28;20606;-78
2020/12/23 02:25:10;;;;;;;23.73;22.08;;;5.80;1.00;;;;;;5055832;28;20628;-78
2020/12/23 02:27:36;;;;;;;29.40;27.87;;;5.80;1.00;;;;;;5055690;28;20205;-78
2020/12/23 02:30:05;;;;;;;25.98;24.27;;;5.70;1.00;;;;;;5055380;28;20170;-78
2020/12/23 02:32:30;;;;;;;27.10;25.83;;;5.60;1.00;;;;;;5037744;28;20181;-77
2020/12/23 02:34:56;;;;;;;30.43;28.63;;;5.60;1.00;;;;;;5055869;28;20209;-78
2020/12/23 02:37:22;;;;;;;31.80;30.20;;;5.70;1.00;;;;;;5055976;28;20276;-78
2020/12/23 02:39:53;;;;;;;30.60;29.00;;;5.60;1.00;;;;;;5055407;28;20567;-78
2020/12/23 02:42:20;;;;;;;35.15;32.92;;;5.60;1.00;;;;;;5055371;28;20604;-78
2020/12/23 02:44:47;;;;;;;34.10;32.20;;;5.60;1.00;;;;;;5055572;28;20181;-78
2020/12/23 02:47:15;;;;;;;30.98;29.38;;;5.50;1.00;;;;;;5055095;28;20189;-78
2020/12/23 02:49:41;;;;;;;32.47;30.77;;;5.50;1.00;;;;;;5054883;28;20709;-77
2020/12/23 02:52:07;;;;;;;24.00;22.40;;;5.50;1.00;;;;;;5055059;28;20315;-78
2020/12/23 02:54:34;;;;;;;28.77;27.08;;;5.50;1.00;;;;;;5054828;28;20653;-78
2020/12/23 02:57:00;;;;;;;30.20;28.27;;;5.50;1.00;;;;;;5037299;28;20237;-78
2020/12/23 02:59:25;;;;;;;28.10;26.80;;;5.40;1.00;;;;;;5055214;28;20170;-78
2020/12/23 03:01:51;;;;;;;27.73;26.23;;;5.50;1.00;;;;;;5055477;28;20173;-78
2020/12/23 03:04:17;;;;;;;29.10;27.27;;;5.40;1.00;;;;;;5054779;28;20166;-77
2020/12/23 03:06:42;;;;;;;24.43;22.80;;;5.30;1.00;;;;;;5055085;28;20212;-78
2020/12/23 03:09:10;;;;;;;29.60;28.20;;;5.30;1.00;;;;;;5054707;28;20400;-76
2020/12/23 03:11:35;;;;;;;33.60;32.17;;;5.30;1.00;;;;;;5055287;28;20166;-76
2020/12/23 03:14:02;;;;;;;29.70;28.20;;;5.20;1.00;;;;;;5054464;28;20185;-76
2020/12/23 03:16:28;;;;;;;35.22;33.13;;;5.20;1.00;;;;;;5054674;28;20293;-76
2020/12/23 03:18:54;;;;;;;35.60;33.30;;;5.20;1.00;;;;;;5055224;28;20609;-76
2020/12/23 03:21:19;;;;;;;30.80;29.30;;;5.10;1.00;;;;;;5055020;28;20166;-76
2020/12/23 03:23:45;;;;;;;27.37;25.93;;;5.10;1.00;;;;;;5036482;28;20590;-75
2020/12/23 03:26:11;;;;;;;28.43;26.47;;;5.00;1.00;;;;;;5036161;28;20189;-75
2020/12/23 03:28:37;;;;;;;23.83;22.73;;;5.00;1.00;;;;;;5054686;28;20622;-76
2020/12/23 03:31:03;;;;;;;28.23;25.47;;;5.00;1.00;;;;;;5054913;28;20201;-76
2020/12/23 03:33:29;;;;;;;43.03;34.87;;;5.00;1.00;;;;;;5054449;28;20205;-75
2020/12/23 03:35:56;;;;;;;29.13;24.70;;;5.00;1.00;;;;;;5054177;28;20489;-76
2020/12/23 03:38:22;;;;;;;45.67;29.83;;;4.90;1.00;;;;;;5054104;28;20197;-75
2020/12/23 03:40:47;;;;;;;30.75;28.00;;;5.00;1.00;;;;;;5036358;28;20215;-76
2020/12/23 03:43:13;;;;;;;26.20;24.80;;;5.00;1.00;;;;;;5054333;28;20253;-76
2020/12/23 03:45:39;;;;;;;33.23;30.80;;;5.00;1.00;;;;;;5054343;28;20178;-76
2020/12/23 03:48:05;;;;;;;26.05;24.40;;;5.00;1.00;;;;;;5054559;28;20193;-76
2020/12/23 03:50:31;;;;;;;21.90;20.60;;;5.00;1.00;;;;;;5054233;28;20574;-75
2020/12/23 03:52:57;;;;;;;23.73;22.60;;;4.90;1.00;;;;;;5053760;28;20181;-76
2020/12/23 03:55:23;;;;;;;24.08;22.80;;;5.00;1.00;;;;;;5053855;28;20810;-76
2020/12/23 03:57:48;;;;;;;25.93;24.63;;;4.90;1.00;;;;;;5053684;28;20276;-75
2020/12/23 04:00:14;;;;;;;24.83;23.67;;;4.90;1.00;;;;;;5036007;28;20257;-76
2020/12/23 04:02:40;;;;;;;18.33;17.40;;;4.90;1.00;;;;;;5053841;28;20166;-76
2020/12/23 04:05:07;;;;;;;25.70;24.05;;;4.90;1.00;;;;;;5053987;28;20174;-76
2020/12/23 04:07:33;;;;;;;22.48;20.95;;;4.80;1.00;;;;;;5053685;28;20220;-76
2020/12/23 04:09:59;;;;;;;22.70;21.60;;;4.90;1.00;;;;;;5054139;28;20628;-76
2020/12/23 04:12:25;;;;;;;21.97;20.67;;;4.80;1.00;;;;;;5053528;28;20182;-76
2020/12/23 04:14:51;;;;;;;23.00;21.80;;;4.80;1.00;;;;;;5053802;28;20193;-76
2020/12/23 04:17:17;;;;;;;26.73;25.43;;;4.70;1.00;;;;;;5053752;28;20330;-76
2020/12/23 04:19:42;;;;;;;26.10;24.20;;;4.80;1.00;;;;;;5053603;28;20212;-76
2020/12/23 04:22:08;;;;;;;22.13;20.93;;;4.80;1.00;;;;;;5053770;28;20172;-76
2020/12/23 04:24:34;;;;;;;25.83;24.10;;;4.80;1.00;;;;;;5053374;28;20647;-76
2020/12/23 04:26:59;;;;;;;24.70;23.20;;;4.80;1.00;;;;;;5053912;28;20209;-76
2020/12/23 04:29:25;;;;;;;26.10;24.20;;;4.90;1.00;;;;;;5054018;28;20170;-76
2020/12/23 04:31:51;;;;;;;22.57;21.17;;;4.90;1.00;;;;;;5053413;28;20177;-76
2020/12/23 04:34:16;;;;;;;23.20;21.60;;;4.90;1.00;;;;;;5053338;28;20220;-76
2020/12/23 04:36:42;;;;;;;21.30;19.97;;;5.00;1.00;;;;;;5052795;28;20208;-76
2020/12/23 04:39:08;;;;;;;24.07;22.77;;;5.00;1.00;;;;;;5053904;28;20166;-76
2020/12/23 04:41:34;;;;;;;25.50;23.13;;;5.00;1.00;;;;;;5035830;28;20466;-76
2020/12/23 04:44:03;;;;;;;23.02;21.63;;;5.00;1.00;;;;;;5053095;28;20197;-76
2020/12/23 04:46:35;;;;;;;31.20;29.50;;;5.10;1.00;;;;;;5053156;28;20194;-76
2020/12/23 04:49:02;;;;;;;26.45;24.75;;;5.00;1.00;;;;;;5053576;28;20558;-76
2020/12/23 04:51:30;;;;;;;22.42;20.88;;;5.10;1.00;;;;;;5053170;28;20245;-76
2020/12/23 04:53:56;;;;;;;24.55;22.67;;;5.10;1.00;;;;;;5053390;28;20216;-76
2020/12/23 04:56:31;;;;;;;25.40;23.52;;;5.00;1.00;;;;;;5052989;28;20692;-76
2020/12/23 04:58:57;;;;;;;25.08;23.40;;;5.10;1.00;;;;;;5053337;28;20200;-76
2020/12/23 05:01:23;;;;;;;23.73;22.42;;;5.10;1.00;;;;;;5036024;28;20638;-76
2020/12/23 05:03:50;;;;;;;25.90;24.58;;;5.20;1.00;;;;;;5052959;28;20205;-76
2020/12/23 05:06:16;;;;;;;22.00;20.55;;;5.20;1.00;;;;;;5053072;28;20668;-76
2020/12/23 05:08:42;;;;;;;24.37;22.87;;;5.30;1.00;;;;;;5053378;28;20212;-76
2020/12/23 05:11:08;;;;;;;30.03;28.33;;;5.30;1.00;;;;;;5035151;28;20178;-76
2020/12/23 05:13:35;;;;;;;25.58;24.27;;;5.40;1.00;;;;;;5052844;28;20181;-76
2020/12/23 05:16:04;;;;;;;28.05;26.48;;;5.40;1.00;;;;;;5053377;28;20280;-76
2020/12/23 05:18:36;;;;;;;27.88;26.38;;;5.50;1.00;;;;;;5053166;28;20186;-75
2020/12/23 05:21:03;;;;;;;28.00;26.42;;;5.50;1.00;;;;;;5035385;28;20285;-76
2020/12/23 05:23:31;;;;;;;24.42;23.13;;;5.50;1.00;;;;;;5052757;28;20174;-76
2020/12/23 05:26:04;;;;;;;22.60;21.27;;;5.60;1.00;;;;;;5052882;28;20178;-76
2020/12/23 05:28:34;;;;;;;31.40;28.85;;;5.70;1.00;;;;;;5034920;28;20198;-76
2020/12/23 05:31:03;;;;;;;33.03;31.42;;;5.60;1.00;;;;;;5052830;28;20380;-76
2020/12/23 05:33:32;;;;;;;30.67;29.00;;;5.60;1.00;;;;;;5052665;28;20190;-76
2020/12/23 05:36:03;;;;;;;29.83;28.33;;;5.50;1.00;;;;;;5052660;28;20201;-76
2020/12/23 05:38:31;;;;;;;24.42;23.20;;;5.60;1.00;;;;;;5034922;28;20200;-76
2020/12/23 05:40:59;;;;;;;29.02;27.52;;;5.50;1.00;;;;;;5052755;28;20247;-76
2020/12/23 05:43:29;;;;;;;31.83;30.00;;;5.60;1.00;;;;;;5052531;28;20538;-76
2020/12/23 05:46:02;;;;;;;31.33;29.58;;;5.60;1.00;;;;;;5052979;28;20185;-76
2020/12/23 05:48:32;;;;;;;30.55;28.90;;;5.60;1.00;;;;;;5036993;28;20194;-76
2020/12/23 05:50:59;;;;;;;31.45;29.92;;;5.70;1.00;;;;;;5056562;28;20598;-76
2020/12/23 05:53:29;;;;;;;34.55;32.58;;;5.70;1.00;;;;;;5056033;28;20505;-76
2020/12/23 05:55:55;;;;;;;29.45;27.73;;;5.70;1.00;;;;;;5056085;28;20701;-76
2020/12/23 05:58:20;;;;;;;23.73;22.33;;;5.70;1.00;;;;;;5038244;28;20208;-76
2020/12/23 06:00:48;;;;;;;24.90;23.50;;;5.80;1.00;;;;;;5056113;28;20166;-76
2020/12/23 06:03:23;;;;;;;25.35;23.80;;;5.80;1.00;;;;;;5038008;28;20197;-76
2020/12/23 06:06:01;;;;;;;24.85;23.55;;;5.80;1.00;;;;;;5055965;28;20173;-76
2020/12/23 06:08:34;;;;;;;33.72;32.22;;;5.80;1.00;;;;;;5055876;28;20209;-76
2020/12/23 06:11:25;;;;;;;36.00;34.10;;;5.80;1.00;;;;;;5056040;28;20181;-76
2020/12/23 06:14:24;;;;;;;35.80;34.13;;;5.80;1.00;;;;;;5055814;28;20197;-76
2020/12/23 06:17:02;;;;;;;26.80;25.30;;;5.80;1.00;;;;;;5055594;28;20323;-76
2020/12/23 06:19:39;;;;;;;34.17;32.25;;;5.80;1.00;;;;;;5055702;28;20176;-76
2020/12/23 06:22:09;;;;;;;30.27;28.77;;;5.80;1.00;;;;;;5055943;28;20154;-76
2020/12/23 06:24:36;;;;;;;27.98;26.67;;;5.90;1.00;;;;;;5055801;28;20241;-76
2020/12/23 06:27:08;;;;;;;32.75;30.95;;;5.90;1.00;;;;;;5055725;28;20241;-76
2020/12/23 06:29:36;;;;;;;30.20;28.40;;;5.90;1.00;;;;;;5055845;28;20162;-76
2020/12/23 06:32:07;;;;;;;23.85;22.45;;;5.90;1.00;;;;;;5055469;28;20166;-76
2020/12/23 06:34:38;;;;;;;35.42;33.20;;;5.90;1.00;;;;;;5055279;28;20150;-76
2020/12/23 06:37:31;;;;;;;31.80;30.25;;;6.00;1.00;;;;;;5055552;28;20694;-76
2020/12/23 06:39:57;;;;;;;24.70;23.20;;;6.00;1.00;;;;;;5055698;28;20162;-77
2020/12/23 06:42:26;;;;;;;29.83;28.13;;;6.10;1.00;;;;;;5055302;28;20173;-76
2020/12/23 06:44:55;;;;;;;26.17;24.48;;;6.10;1.00;;;;;;5054931;28;20178;-76
2020/12/23 06:47:32;;;;;;;25.23;23.73;;;6.10;1.00;;;;;;5055206;28;20296;-76
2020/12/23 06:50:00;;;;;;;26.67;24.63;;;6.20;1.00;;;;;;5055170;28;20531;-76
2020/12/23 06:52:27;;;;;;;27.70;26.08;;;6.20;1.00;;;;;;5037504;28;20182;-76
2020/12/23 06:55:06;;;;;;;29.20;27.48;;;6.30;1.00;;;;;;5054860;28;20224;-76
2020/12/23 06:57:38;;;;;;;31.90;30.00;;;6.30;1.00;;;;;;5055161;28;20197;-76
2020/12/23 07:00:13;;;;;;;33.08;30.80;;;6.40;1.00;;;;;;5055180;28;20240;-77
2020/12/23 07:02:42;;;;;;;28.65;27.02;;;6.40;1.00;;;;;;5055018;28;20534;-76
2020/12/23 07:05:12;;;;;;;32.92;31.13;;;6.40;1.00;;;;;;5054850;28;20180;-76
2020/12/23 07:07:38;;;;;;;32.40;30.50;;;6.50;1.00;;;;;;5055123;28;20213;-76
2020/12/23 07:10:10;;;;;;;34.10;32.20;;;6.50;1.00;;;;;;5054813;28;20170;-76
2020/12/23 07:12:41;;;;;;;30.20;28.42;;;6.50;1.00;;;;;;5054591;28;20171;-76
2020/12/23 07:15:08;;;;;;;30.30;28.50;;;6.50;1.00;;;;;;5054887;28;20659;-77
2020/12/23 07:17:40;;;;;;;27.75;25.95;;;6.60;1.00;;;;;;5054716;28;20198;-77
2020/12/23 07:20:07;;;;;;;33.72;31.70;;;6.60;1.00;;;;;;5036754;28;20178;-77
2020/12/23 07:22:34;;;;;;;28.80;26.90;;;6.70;1.00;;;;;;5036676;28;20176;-76
2020/12/23 07:25:00;;;;;;;31.77;29.75;;;6.70;1.00;;;;;;5054356;28;20178;-76
2020/12/23 07:27:27;;;;;;;34.03;31.67;;;6.70;1.00;;;;;;5036488;28;20200;-76
2020/12/23 07:30:04;;;;;;;34.83;32.90;;;6.80;1.00;;;;;;5054447;28;20182;-76
2020/12/23 07:32:29;;;;;;;31.05;29.13;;;6.80;1.00;;;;;;5036406;28;20166;-76
2020/12/23 07:34:55;;;;;;;38.50;36.13;;;6.80;1.00;;;;;;5054091;28;20201;-76
2020/12/23 07:37:20;;;;;;;26.73;24.83;;;6.80;1.00;;;;;;5054205;28;20190;-76
2020/12/23 07:39:48;;;;;;;31.93;29.73;;;6.90;1.00;;;;;;5054206;28;20178;-76
2020/12/23 07:42:22;;;;;;;28.38;26.00;;;6.90;1.00;;;;;;5053984;28;20170;-76
2020/12/23 07:44:50;;;;;;;29.67;27.42;;;6.90;1.00;;;;;;5053976;28;20162;-76
2020/12/23 07:47:24;;;;;;;29.05;26.83;;;6.90;1.00;;;;;;5054151;28;20185;-77
2020/12/23 07:50:04;;;;;;;28.98;27.05;;;6.90;1.00;;;;;;5054588;28;20155;-76
2020/12/23 07:52:30;;;;;;;36.83;34.63;;;7.00;1.00;;;;;;5053920;28;20231;-77
2020/12/23 07:55:11;;;;;;;33.58;31.17;;;7.00;1.00;;;;;;5053956;28;20202;-76
2020/12/23 07:57:37;;;;;;;33.40;30.90;;;7.00;1.00;;;;;;5054244;28;20276;-76
2020/12/23 08:00:07;;;;;;;36.00;33.70;;;7.00;1.00;;;;;;5053826;28;20256;-77
2020/12/23 08:02:34;;;;;;;33.03;30.83;;;7.00;1.00;;;;;;5054095;28;20248;-77
2020/12/23 08:05:00;;;;;;;32.15;29.52;;;7.10;1.00;;;;;;5053591;28;20186;-76
2020/12/23 08:07:26;;;;;;;28.58;26.50;;;7.10;1.00;;;;;;5053657;28;20205;-77
2020/12/23 08:09:53;;;;;;;28.63;26.17;;;7.20;1.00;;;;;;5053119;28;20174;-77
2020/12/23 08:12:19;;;;;;;26.05;24.05;;;7.20;1.00;;;;;;5053580;28;20248;-76
2020/12/23 08:14:46;;;;;;;26.10;24.10;;;7.30;1.00;;;;;;5053404;28;20208;-76
2020/12/23 08:17:23;;;;;;;24.58;22.48;;;7.30;1.00;;;;;;5052613;28;20273;-75
2020/12/23 08:20:05;;;;;;;23.02;20.63;;;7.40;1.00;;;;;;5052893;28;20203;-76
2020/12/23 08:22:33;;;;;;;25.35;23.40;;;7.40;1.00;;;;;;5053974;28;20240;-76
2020/12/23 08:25:10;;;;;;;28.27;26.10;;;7.40;1.00;;;;;;5053260;28;20644;-76
2020/12/23 08:27:37;;;;;;;26.10;23.90;;;7.40;1.00;;;;;;5054183;28;20216;-76
2020/12/23 08:30:06;;;;;;;26.90;24.88;;;7.40;1.00;;;;;;5053410;28;20174;-76
2020/12/23 08:32:36;;;;;;;31.77;29.23;;;7.40;1.00;;;;;;5053652;28;20173;-76
2020/12/23 08:35:03;;;;;;;26.88;24.65;;;7.40;1.00;;;;;;5053104;28;20656;-76
2020/12/23 08:37:29;;;;;;;33.47;31.00;;;7.40;1.00;;;;;;5053265;28;20205;-76
2020/12/23 08:39:59;;;;;;;32.27;30.07;;;7.40;1.00;;;;;;5055474;28;20170;-77
2020/12/23 08:42:25;;;;;;;32.33;28.35;;;7.50;1.00;;;;;;5019160;28;20635;-77
2020/12/23 08:44:55;;;;;;;33.85;31.17;;;7.50;1.00;;;;;;5051231;28;20588;-76
2020/12/23 08:47:30;;;;;;;31.25;28.90;;;7.50;1.00;;;;;;5052978;28;20264;-76
2020/12/23 08:49:56;;;;;;;31.98;29.40;;;7.50;1.00;;;;;;5042565;28;20174;-77
2020/12/23 08:52:23;;;;;;;36.90;33.90;;;7.50;1.00;;;;;;5034595;28;20162;-77
2020/12/23 08:54:49;;;;;;;38.03;35.25;;;7.60;1.00;;;;;;5038735;28;20174;-77
2020/12/23 08:57:26;;;;;;;36.20;33.45;;;7.60;1.00;;;;;;5037851;28;20190;-77
2020/12/23 08:59:53;;;;;;;35.38;31.73;;;7.60;1.00;;;;;;5036778;28;20159;-77
2020/12/23 09:02:19;;;;;;;30.08;27.48;;;7.60;1.00;;;;;;5034384;28;20167;-77
2020/12/23 09:04:45;;;;;;;33.53;30.97;;;7.60;1.00;;;;;;5034214;28;20580;-77
2020/12/23 09:07:12;;;;;;;33.55;30.48;;;7.60;1.00;;;;;;5033113;28;20619;-76
2020/12/23 09:09:37;;;;;;;30.23;26.95;;;7.70;1.00;;;;;;5033445;28;20166;-76
2020/12/23 09:12:06;;;;;;;28.10;25.67;;;7.70;1.00;;;;;;5033436;28;20220;-76
2020/12/23 09:14:34;;;;;;;27.52;24.73;;;7.70;1.00;;;;;;5032955;28;20175;-76
2020/12/23 09:17:18;;;;;;;27.30;25.25;;;7.80;1.00;;;;;;5015192;28;20692;-77
2020/12/23 09:20:13;;;;;;;25.58;23.33;;;7.80;1.00;;;;;;5015530;28;20170;-76
2020/12/23 09:22:41;;;;;;;27.45;25.02;;;7.80;1.00;;;;;;5018858;28;20178;-77
2020/12/23 09:25:25;;;;;;;30.42;28.00;;;7.80;1.00;;;;;;5037283;28;20178;-76
2020/12/23 09:27:53;;;;;;;23.25;20.63;;;7.90;1.00;;;;;;5021434;28;20247;-77
2020/12/23 09:30:33;;;;;;;27.15;24.75;;;7.90;1.00;;;;;;5019134;28;20179;-77
2020/12/23 09:33:00;;;;;;;36.47;33.33;;;7.90;1.00;;;;;;5045856;28;20174;-77
2020/12/23 09:35:27;;;;;;;28.08;25.20;;;7.90;1.00;;;;;;5058476;28;20263;-77
2020/12/23 09:38:11;;;;;;;31.50;28.75;;;7.90;1.00;;;;;;5060563;28;20186;-77
2020/12/23 09:40:47;;;;;;;34.63;32.10;;;8.00;1.00;;;;;;5060796;28;20628;-77
2020/12/23 09:43:19;;;;;;;34.00;31.15;;;8.00;1.00;;;;;;5060531;28;20157;-77
2020/12/23 09:45:49;;;;;;;32.83;25.63;;;8.00;1.00;;;;;;5059974;28;20170;-77
2020/12/23 09:48:16;;;;;;;27.75;24.23;;;8.00;1.00;;;;;;5061749;28;20427;-77
2020/12/23 09:50:43;;;;;;;33.38;30.27;;;8.10;1.00;;;;;;5047120;28;20177;-77
2020/12/23 09:53:09;;;;;;;29.55;26.80;;;8.10;1.00;;;;;;5066058;28;20185;-77
2020/12/23 09:55:35;;;;;;;29.58;26.73;;;8.10;1.00;;;;;;5043591;28;20293;-77
2020/12/23 09:58:00;;;;;;;32.77;29.67;;;8.10;1.00;;;;;;5040817;28;20221;-77
2020/12/23 10:00:27;;;;;;;32.47;29.47;;;8.10;1.00;;;;;;5059175;28;20211;-78
2020/12/23 10:02:54;;;;;;;37.60;34.60;;;8.20;1.00;;;;;;5056599;28;20628;-78
2020/12/23 10:05:19;;;;;;;32.83;29.80;;;8.10;1.00;;;;;;5057423;28;20203;-78
2020/12/23 10:07:45;;;;;;;32.47;29.17;;;8.20;1.00;;;;;;5056348;28;20471;-78
2020/12/23 10:10:11;;;;;;;37.60;34.33;;;8.20;1.00;;;;;;5054753;28;20554;-77
2020/12/23 10:12:37;;;;;;;32.37;29.10;;;8.30;1.00;;;;;;5056107;28;20193;-77
2020/12/23 10:15:05;;;;;;;31.02;27.95;;;8.30;1.00;;;;;;5056116;28;20662;-77
2020/12/23 10:17:31;;;;;;;39.43;31.30;;;8.30;1.00;;;;;;5055797;28;20567;-77
2020/12/23 10:19:57;;;;;;;35.47;32.40;;;8.30;1.00;;;;;;5038199;28;20423;-77
2020/12/23 10:22:23;;;;;;;31.30;28.37;;;8.30;1.00;;;;;;5037594;28;20178;-78
2020/12/23 10:24:48;;;;;;;35.17;32.17;;;8.30;1.00;;;;;;5056048;28;20166;-78
2020/12/23 10:27:14;;;;;;;33.77;30.23;;;8.30;1.00;;;;;;5037867;28;20429;-77
2020/12/23 10:29:39;;;;;;;35.47;32.37;;;8.30;1.00;;;;;;5055617;28;20249;-77
2020/12/23 10:32:05;;;;;;;32.50;27.43;;;8.30;1.00;;;;;;5055936;28;20177;-77
2020/12/23 10:34:30;;;;;;;40.17;36.87;;;8.20;1.00;;;;;;5037153;28;20211;-77
2020/12/23 10:36:57;;;;;;;36.30;32.80;;;8.20;1.00;;;;;;5055064;28;20207;-78
2020/12/23 10:39:23;;;;;;;39.97;36.50;;;8.20;1.00;;;;;;5037154;28;20204;-80
2020/12/23 10:41:53;;;;;;;43.90;40.00;;;8.20;1.00;;;;;;5053051;28;20443;-78
2020/12/23 10:44:21;;;;;;;37.90;34.53;;;8.20;1.00;;;;;;5055415;28;20185;-79
2020/12/23 10:46:47;;;;;;;27.98;24.77;;;8.20;1.00;;;;;;5055520;28;20193;-79
2020/12/23 10:49:12;;;;;;;41.47;37.07;;;8.20;1.00;;;;;;5059444;28;20177;-78
2020/12/23 10:51:38;;;;;;;39.77;36.17;;;8.30;1.00;;;;;;5058993;28;20471;-78
2020/12/23 10:54:04;;;;;;;47.20;43.40;;;8.30;1.00;;;;;;5057341;28;20197;-78
2020/12/23 10:59:05;;;;;;;35.70;32.53;;;8.30;1.00;;;;;;5234249;22;20239;-79
2020/12/23 11:01:30;;;;;;;33.83;30.20;;;8.30;1.00;;;;;;5076454;28;20408;-79
2020/12/23 11:03:56;;;;;;;36.63;33.20;;;8.30;1.00;;;;;;5075614;28;20959;-79
2020/12/23 11:06:21;;;;;;;39.77;36.10;;;8.40;1.00;;;;;;5075476;28;20537;-79
2020/12/23 11:08:47;;;;;;;33.67;29.40;;;8.40;1.00;;;;;;5057901;28;20171;-79
2020/12/23 11:11:14;;;;;;;34.03;30.70;;;8.40;1.00;;;;;;5075909;28;20229;-78
2020/12/23 11:13:41;;;;;;;40.37;37.17;;;8.40;1.00;;;;;;5076211;28;20208;-78
2020/12/23 11:16:12;;;;;;;39.33;36.10;;;8.50;1.00;;;;;;5076400;28;20961;-79
2020/12/23 11:18:38;;;;;;;41.77;38.47;;;8.50;1.00;;;;;;5075903;28;20878;-79
2020/12/23 11:21:04;;;;;;;43.63;39.90;;;8.50;1.00;;;;;;5057724;28;20419;-78
2020/12/23 11:23:29;;;;;;;41.53;38.47;;;8.50;1.00;;;;;;5074203;28;20771;-79
2020/12/23 11:25:55;;;;;;;46.13;42.50;;;8.50;1.00;;;;;;5074040;28;20177;-78
2020/12/23 11:28:21;;;;;;;42.30;37.50;;;8.50;1.00;;;;;;5073996;28;20193;-78
2020/12/23 11:30:48;;;;;;;36.07;32.60;;;8.60;1.00;;;;;;5074184;28;20161;-78
2020/12/23 11:33:13;;;;;;;42.83;38.80;;;8.50;1.00;;;;;;5073947;28;20488;-78
2020/12/23 11:35:39;;;;;;;38.20;34.30;;;8.50;1.00;;;;;;5073784;28;20937;-78
2020/12/23 11:38:05;;;;;;;38.83;35.17;;;8.50;1.00;;;;;;5073724;28;20207;-78
2020/12/23 11:40:30;;;;;;;37.80;33.80;;;8.40;1.00;;;;;;5073751;28;20169;-78
2020/12/23 11:42:56;;;;;;;36.93;33.10;;;8.40;1.00;;;;;;5073660;28;20200;-78
2020/12/23 11:45:21;;;;;;;40.17;36.47;;;8.50;1.00;;;;;;5072658;28;20617;-78
2020/12/23 11:47:47;;;;;;;34.33;30.77;;;8.50;1.00;;;;;;5073431;28;20201;-78
2020/12/23 11:50:13;;;;;;;36.17;32.83;;;8.60;1.00;;;;;;5055662;28;20272;-78
2020/12/23 11:52:38;;;;;;;39.20;34.67;;;8.50;1.00;;;;;;5073478;28;20492;-78
2020/12/23 11:55:04;;;;;;;36.83;33.53;;;8.50;1.00;;;;;;5073296;28;20296;-78
2020/12/23 11:57:30;;;;;;;38.30;35.10;;;8.50;1.00;;;;;;5073199;28;20669;-77
2020/12/23 11:59:55;;;;;;;39.87;36.50;;;8.60;1.00;;;;;;5074996;28;20176;-78
2020/12/23 12:02:21;;;;;;;37.03;33.70;;;8.60;1.00;;;;;;5073475;28;20212;-78
2020/12/23 12:04:46;;;;;;;35.27;32.00;;;8.60;1.00;;;;;;5073210;28;20169;-78
2020/12/23 12:07:12;;;;;;;37.60;34.23;;;8.60;1.00;;;;;;5055257;28;20189;-78
2020/12/23 12:09:37;;;;;;;38.70;35.10;;;8.70;1.00;;;;;;5066200;28;20189;-78
2020/12/23 12:12:03;;;;;;;39.77;36.17;;;8.70;1.00;;;;;;5053108;28;20166;-78
2020/12/23 12:14:29;;;;;;;34.20;31.30;;;8.70;1.00;;;;;;5052978;28;20192;-78
2020/12/23 12:16:55;;;;;;;34.97;31.17;;;8.70;1.00;;;;;;5052906;28;20209;-78
2020/12/23 12:19:21;;;;;;;39.03;35.23;;;8.70;1.00;;;;;;5053031;28;20414;-77
2020/12/23 12:21:46;;;;;;;31.93;28.50;;;8.70;1.00;;;;;;5053003;28;20173;-77
2020/12/23 12:24:12;;;;;;;28.40;25.40;;;8.70;1.00;;;;;;5035139;28;20182;-78
2020/12/23 12:26:37;;;;;;;29.90;24.87;;;8.70;1.00;;;;;;5053028;28;20243;-78
2020/12/23 12:29:04;;;;;;;30.53;27.17;;;8.70;1.00;;;;;;5053108;28;20185;-78
2020/12/23 12:31:30;;;;;;;29.47;26.70;;;8.70;1.00;;;;;;5052825;28;20174;-78
2020/12/23 12:33:56;;;;;;;33.90;31.10;;;8.70;1.00;;;;;;5052667;28;20979;-78
2020/12/23 12:36:24;;;;;;;33.73;30.90;;;8.80;1.00;;;;;;5052838;28;20543;-78
2020/12/23 12:38:50;;;;;;;35.03;31.87;;;8.80;1.00;;;;;;5034798;28;20841;-78
2020/12/23 12:41:28;;;;;;;35.53;32.47;;;8.80;1.00;;;;;;5034904;28;20450;-78
2020/12/23 12:43:54;;;;;;;30.23;27.67;;;8.90;1.00;;;;;;5052703;28;20389;-78
2020/12/23 12:46:22;;;;;;;31.40;29.00;;;8.90;1.00;;;;;;5034875;28;20450;-78
2020/12/23 12:48:48;;;;;;;31.33;28.90;;;8.90;1.00;;;;;;5052805;28;20424;-78
2020/12/23 12:51:13;;;;;;;30.37;27.77;;;8.90;1.00;;;;;;5053013;28;20882;-78
2020/12/23 12:53:39;;;;;;;145.13;106.80;;;8.90;1.00;;;;;;5035075;28;20177;-78